Time;durP1;ratioP1;P1;durP2;ratioP2;P2;SDS_P1;SDS_P2;PMS_P1;PMS_P2;Temp;Humidity;BMP_temperature;BMP_pressure;BME280_temperature;BME280_humidity;BME280_pressure;Samples;Min_cycle;Max_cycle;Signal;HPM_P1;HPM_P2
2022/09/12 00:01:22;;;;;;;0.00;0.00;;;13.90;99.90;;;;;;5119735;27;20501;-71
2022/09/12 00:03:53;;;;;;;0.00;0.00;;;13.90;99.90;;;;;;5120017;27;20747;-71
2022/09/12 00:06:25;;;;;;;0.00;0.00;;;13.90;99.90;;;;;;5119747;27;20425;-72
2022/09/12 00:08:55;;;;;;;0.00;0.00;;;13.90;99.90;;;;;;5119169;27;20448;-72
2022/09/12 00:11:23;;;;;;;0.00;0.00;;;13.90;99.90;;;;;;5119149;27;20505;-71
2022/09/12 00:13:50;;;;;;;0.00;0.00;;;13.80;99.90;;;;;;5119480;27;20449;-70
2022/09/12 00:16:21;;;;;;;0.00;0.00;;;13.80;99.90;;;;;;5119079;27;20436;-70
2022/09/12 00:18:50;;;;;;;0.00;0.00;;;13.80;99.90;;;;;;5119347;27;20880;-72
2022/09/12 00:21:21;;;;;;;0.00;0.00;;;13.80;99.90;;;;;;5118785;27;20432;-70
2022/09/12 00:23:49;;;;;;;0.00;0.00;;;13.70;99.90;;;;;;5119290;27;20440;-70
2022/09/12 00:26:19;;;;;;;0.00;0.00;;;13.70;99.90;;;;;;5119299;27;20731;-71
2022/09/12 00:28:48;;;;;;;0.00;0.00;;;13.60;99.90;;;;;;5119021;27;20444;-71
2022/09/12 00:31:18;;;;;;;0.00;0.00;;;13.60;99.90;;;;;;5119004;27;20451;-71
2022/09/12 00:33:46;;;;;;;0.00;0.00;;;13.60;99.90;;;;;;5118865;27;20484;-72
2022/09/12 00:36:16;;;;;;;0.00;0.00;;;13.50;99.90;;;;;;5118991;27;20456;-72
2022/09/12 00:38:46;;;;;;;0.00;0.00;;;13.60;99.90;;;;;;5118830;27;20428;-72
2022/09/12 00:41:19;;;;;;;0.00;0.00;;;13.60;99.90;;;;;;5118589;27;20986;-71
2022/09/12 00:43:49;;;;;;;0.00;0.00;;;13.50;99.90;;;;;;5119409;27;20992;-73
2022/09/12 00:46:34;;;;;;;0.00;0.00;;;13.50;99.90;;;;;;5119421;27;20471;-72
2022/09/12 00:49:05;;;;;;;0.00;0.00;;;13.50;99.90;;;;;;5120149;27;20460;-72
2022/09/12 00:51:36;;;;;;;0.00;0.00;;;13.50;99.90;;;;;;5120116;27;20447;-72
2022/09/12 00:54:10;;;;;;;0.00;0.00;;;13.50;99.90;;;;;;5119509;27;20912;-73
2022/09/12 00:56:39;;;;;;;0.00;0.00;;;13.50;99.90;;;;;;5119371;28;20440;-71
2022/09/12 00:59:12;;;;;;;0.00;0.00;;;13.40;99.90;;;;;;5119063;28;20468;-72
2022/09/12 01:01:42;;;;;;;0.00;0.00;;;13.40;99.90;;;;;;5123551;27;20489;-73
2022/09/12 01:04:11;;;;;;;0.00;0.00;;;13.50;99.90;;;;;;5128454;28;20458;-72
2022/09/12 01:06:42;;;;;;;0.00;0.00;;;13.40;99.90;;;;;;5129629;27;20432;-73
2022/09/12 01:09:15;;;;;;;0.00;0.00;;;13.50;99.90;;;;;;5139341;28;21196;-72
2022/09/12 01:11:45;;;;;;;0.00;0.00;;;13.40;99.90;;;;;;5128795;27;20515;-72
2022/09/12 01:14:14;;;;;;;0.00;0.00;;;13.40;99.90;;;;;;5123938;28;20468;-72
2022/09/12 01:16:43;;;;;;;0.00;0.00;;;13.40;99.90;;;;;;5125192;27;20459;-72
2022/09/12 01:19:34;;;;;;;0.00;0.00;;;13.30;99.90;;;;;;5122162;27;20457;-72
2022/09/12 01:22:16;;;;;;;0.00;0.00;;;13.30;99.90;;;;;;5120277;27;20433;-72
2022/09/12 01:24:54;;;;;;;0.00;0.00;;;13.30;99.90;;;;;;5120054;28;20499;-73
2022/09/12 01:27:43;;;;;;;0.00;0.00;;;13.30;99.90;;;;;;5120358;27;20932;-73
2022/09/12 01:30:24;;;;;;;0.00;0.00;;;13.30;99.90;;;;;;5120264;27;20475;-72
2022/09/12 01:33:14;;;;;;;0.00;0.00;;;13.30;99.90;;;;;;5119692;27;20467;-72
2022/09/12 01:35:47;;;;;;;0.00;0.00;;;13.30;99.90;;;;;;5115539;27;20602;-72
2022/09/12 01:38:23;;;;;;;0.00;0.00;;;13.20;99.90;;;;;;5119363;28;20490;-72
2022/09/12 01:40:59;;;;;;;0.00;0.00;;;13.20;99.90;;;;;;5119397;27;20524;-73
2022/09/12 01:43:33;;;;;;;0.00;0.00;;;13.20;99.90;;;;;;5121538;27;20440;-71
2022/09/12 01:46:10;;;;;;;0.00;0.00;;;13.20;99.90;;;;;;5119484;27;20520;-71
2022/09/12 01:48:46;;;;;;;0.00;0.00;;;13.20;99.90;;;;;;5119439;28;20747;-72
2022/09/12 01:51:19;;;;;;;0.00;0.00;;;13.20;99.90;;;;;;5118881;28;20800;-71
2022/09/12 01:53:52;;;;;;;0.00;0.00;;;13.10;99.90;;;;;;5119713;27;20825;-71
2022/09/12 01:56:25;;;;;;;0.00;0.00;;;13.10;99.90;;;;;;5121590;27;20999;-71
2022/09/12 01:58:59;;;;;;;0.00;0.00;;;13.10;99.90;;;;;;5122047;27;20978;-72
2022/09/12 02:01:32;;;;;;;0.00;0.00;;;13.10;99.90;;;;;;5124489;27;20963;-71
2022/09/12 02:04:07;;;;;;;0.00;0.00;;;13.10;99.90;;;;;;5123502;27;20417;-72
2022/09/12 02:06:41;;;;;;;0.00;0.00;;;13.10;99.90;;;;;;5123876;27;20439;-71
2022/09/12 02:09:12;;;;;;;0.00;0.00;;;13.10;99.90;;;;;;5121695;27;20513;-71
2022/09/12 02:11:43;;;;;;;0.00;0.00;;;13.00;99.90;;;;;;5122078;27;20437;-71
2022/09/12 02:14:15;;;;;;;0.00;0.00;;;13.00;99.90;;;;;;5121704;27;20468;-71
2022/09/12 02:31:04;;;;;;;0.00;0.00;;;12.80;99.90;;;;;;4800313;29;20714;-88
2022/09/12 02:33:38;;;;;;;0.00;0.00;;;12.80;99.90;;;;;;4859433;29;20480;-89
2022/09/12 02:36:15;;;;;;;0.00;0.00;;;12.70;99.90;;;;;;4896688;29;20453;-89
2022/09/12 02:38:47;;;;;;;0.00;0.00;;;12.80;99.90;;;;;;4896531;29;20550;-89
2022/09/12 02:41:18;;;;;;;0.00;0.00;;;12.80;99.90;;;;;;4900421;29;20485;-89
2022/09/12 02:43:49;;;;;;;0.00;0.00;;;12.70;99.90;;;;;;4899321;29;20448;-88
2022/09/12 02:46:34;;;;;;;0.00;0.00;;;12.80;99.90;;;;;;4925213;28;20486;-88
2022/09/12 02:49:14;;;;;;;0.00;0.00;;;12.80;99.90;;;;;;4973454;28;20455;-89
2022/09/12 03:50:39;;;;;;;0.00;0.00;;;12.30;99.90;;;;;;4943488;23;21045;-72
2022/09/12 03:53:07;;;;;;;0.00;0.00;;;12.20;99.90;;;;;;5005902;28;20484;-72
2022/09/12 03:55:35;;;;;;;0.00;0.00;;;12.30;99.90;;;;;;5005119;28;21078;-72
2022/09/12 03:58:02;;;;;;;0.00;0.00;;;12.30;99.90;;;;;;5000233;28;20453;-72
2022/09/12 04:00:30;;;;;;;0.00;0.00;;;12.30;99.90;;;;;;4999469;28;20494;-72
2022/09/12 04:02:58;;;;;;;0.00;0.00;;;12.40;99.90;;;;;;5000214;28;20496;-72
2022/09/12 04:05:26;;;;;;;0.00;0.00;;;12.40;99.90;;;;;;4999988;28;21101;-72
2022/09/12 04:07:55;;;;;;;0.00;0.00;;;12.30;99.90;;;;;;4999978;28;20492;-72
2022/09/12 04:10:23;;;;;;;0.00;0.00;;;12.30;99.90;;;;;;4999528;28;20524;-74
2022/09/12 04:12:51;;;;;;;0.00;0.00;;;12.30;99.90;;;;;;4999820;28;20434;-75
2022/09/12 04:15:19;;;;;;;0.00;0.00;;;12.30;99.90;;;;;;4999620;28;20513;-75
2022/09/12 04:17:47;;;;;;;0.00;0.00;;;12.30;99.90;;;;;;5000744;28;20507;-77
2022/09/12 04:20:14;;;;;;;0.00;0.00;;;12.40;99.90;;;;;;4999599;28;20454;-75
2022/09/12 04:22:42;;;;;;;0.00;0.00;;;12.40;99.90;;;;;;4999097;28;20441;-75
2022/09/12 04:25:12;;;;;;;0.00;0.00;;;12.50;99.90;;;;;;4998969;28;20857;-74
2022/09/12 04:27:40;;;;;;;0.00;0.00;;;12.50;99.90;;;;;;4999203;28;20487;-75
2022/09/12 04:30:09;;;;;;;0.00;0.00;;;12.60;99.90;;;;;;4997890;28;20888;-75
2022/09/12 04:32:37;;;;;;;0.00;0.00;;;12.70;99.90;;;;;;4981066;28;20455;-74
2022/09/12 04:35:05;;;;;;;0.00;0.00;;;12.70;99.90;;;;;;4978882;28;21001;-73
2022/09/12 04:37:33;;;;;;;0.00;0.00;;;12.70;99.90;;;;;;4978826;28;20606;-73
2022/09/12 04:40:01;;;;;;;0.00;0.00;;;12.80;99.90;;;;;;4978657;28;20554;-73
2022/09/12 04:42:30;;;;;;;0.00;0.00;;;12.70;99.90;;;;;;4978550;28;20478;-73
2022/09/12 04:44:58;;;;;;;0.00;0.00;;;12.70;99.90;;;;;;4979576;28;20435;-73
2022/09/12 04:47:26;;;;;;;0.00;0.00;;;12.70;99.90;;;;;;4997662;28;20450;-73
2022/09/12 04:49:54;;;;;;;0.00;0.00;;;12.70;99.90;;;;;;4990305;28;20521;-73
2022/09/12 04:52:22;;;;;;;0.00;0.00;;;12.70;99.90;;;;;;4989138;28;20797;-72
2022/09/12 04:54:49;;;;;;;0.00;0.00;;;12.70;99.90;;;;;;4987835;28;20593;-73
2022/09/12 04:57:18;;;;;;;0.00;0.00;;;12.70;99.90;;;;;;4987944;28;20442;-72
2022/09/12 04:59:47;;;;;;;0.00;0.00;;;12.60;99.90;;;;;;4986244;28;20897;-73
2022/09/12 05:02:15;;;;;;;0.00;0.00;;;12.70;99.90;;;;;;4988474;28;20438;-72
2022/09/12 05:04:42;;;;;;;0.00;0.00;;;12.70;99.90;;;;;;4988023;28;20550;-72
2022/09/12 05:07:11;;;;;;;0.00;0.00;;;12.80;99.90;;;;;;4988531;28;20441;-73
2022/09/12 05:09:38;;;;;;;0.00;0.00;;;12.70;99.90;;;;;;4988791;28;20489;-71
2022/09/12 05:12:07;;;;;;;0.00;0.00;;;12.80;99.90;;;;;;4987055;28;20466;-73
2022/09/12 05:14:35;;;;;;;0.00;0.00;;;12.80;99.90;;;;;;4987145;28;20867;-74
2022/09/12 05:17:04;;;;;;;0.00;0.00;;;12.80;99.90;;;;;;4991503;28;20972;-73
2022/09/12 05:19:32;;;;;;;0.00;0.00;;;12.80;99.90;;;;;;4997417;28;20473;-73
2022/09/12 05:22:00;;;;;;;0.00;0.00;;;12.80;99.90;;;;;;4998259;28;20452;-74
2022/09/12 05:24:28;;;;;;;0.00;0.00;;;12.70;99.90;;;;;;4997985;28;20442;-73
2022/09/12 05:26:56;;;;;;;0.00;0.00;;;12.70;99.90;;;;;;4997984;28;20536;-73
2022/09/12 05:29:24;;;;;;;0.00;0.00;;;12.70;99.90;;;;;;4998768;28;21027;-72
2022/09/12 05:31:52;;;;;;;0.00;0.00;;;12.70;99.90;;;;;;4993137;28;20449;-72
2022/09/12 05:34:22;;;;;;;0.00;0.00;;;12.80;99.90;;;;;;4990174;28;20482;-73
2022/09/12 05:36:50;;;;;;;0.00;0.00;;;12.80;99.90;;;;;;4997956;28;20472;-70
2022/09/12 05:39:17;;;;;;;0.00;0.00;;;12.90;99.90;;;;;;4989663;28;20486;-72
2022/09/12 05:41:46;;;;;;;0.00;0.00;;;12.90;99.90;;;;;;4984532;28;21035;-72
2022/09/12 05:44:16;;;;;;;0.00;0.00;;;12.90;99.90;;;;;;4995090;28;21001;-72
2022/09/12 05:46:52;;;;;;;0.00;0.00;;;13.00;99.90;;;;;;4994746;28;20461;-72
2022/09/12 05:49:27;;;;;;;0.00;0.00;;;13.00;99.90;;;;;;5001397;28;20462;-72
2022/09/12 05:51:55;;;;;;;0.00;0.00;;;13.10;99.90;;;;;;5000619;28;20473;-72
2022/09/12 05:54:23;;;;;;;0.00;0.00;;;13.10;99.90;;;;;;4993564;28;20771;-69
2022/09/12 05:56:56;;;;;;;0.00;0.00;;;13.20;99.90;;;;;;4981773;28;20867;-69
2022/09/12 05:59:23;;;;;;;0.00;0.00;;;13.10;99.90;;;;;;4981640;28;20466;-69
2022/09/12 06:01:51;;;;;;;0.00;0.00;;;13.10;99.90;;;;;;4981567;28;20701;-69
2022/09/12 06:04:19;;;;;;;0.00;0.00;;;13.20;99.90;;;;;;4989203;28;20511;-69
2022/09/12 06:06:49;;;;;;;0.00;0.00;;;13.20;99.90;;;;;;5001621;28;20449;-69
2022/09/12 06:09:17;;;;;;;0.00;0.00;;;13.20;99.90;;;;;;4986629;28;20474;-68
2022/09/12 06:11:45;;;;;;;0.00;0.00;;;13.20;99.90;;;;;;4983933;28;20463;-69
2022/09/12 06:14:15;;;;;;;0.00;0.00;;;13.20;99.90;;;;;;4983537;28;20993;-68
2022/09/12 06:16:43;;;;;;;0.00;0.00;;;13.20;99.90;;;;;;4983131;28;20451;-70
2022/09/12 06:19:15;;;;;;;0.00;0.00;;;13.20;99.90;;;;;;4992264;28;20474;-68
2022/09/12 06:21:44;;;;;;;0.00;0.00;;;13.30;99.90;;;;;;4993263;28;20462;-70
2022/09/12 06:24:13;;;;;;;0.00;0.00;;;13.40;99.90;;;;;;4991170;28;21042;-70
2022/09/12 06:26:41;;;;;;;0.00;0.00;;;13.50;99.90;;;;;;5002525;28;20663;-69
2022/09/12 06:29:12;;;;;;;0.00;0.00;;;13.50;99.90;;;;;;5001303;28;20474;-70
2022/09/12 06:31:41;;;;;;;0.00;0.00;;;13.60;99.90;;;;;;4995518;28;20482;-70
2022/09/12 06:34:11;;;;;;;0.00;0.00;;;13.60;99.90;;;;;;4993338;28;20486;-69
2022/09/12 06:36:41;;;;;;;0.00;0.00;;;13.70;99.90;;;;;;4992555;28;20474;-69
2022/09/12 06:39:11;;;;;;;0.00;0.00;;;13.80;99.90;;;;;;4989082;28;20471;-69
2022/09/12 06:41:40;;;;;;;0.00;0.00;;;13.90;99.90;;;;;;4993971;28;20526;-70
2022/09/12 06:44:14;;;;;;;0.00;0.00;;;13.90;99.90;;;;;;4992736;28;20561;-69
2022/09/12 06:46:43;;;;;;;0.00;0.00;;;14.00;99.90;;;;;;4991817;28;20756;-69
2022/09/12 06:49:11;;;;;;;0.00;0.00;;;14.10;99.90;;;;;;4994496;28;20470;-67
2022/09/12 06:51:40;;;;;;;0.00;0.00;;;14.10;99.90;;;;;;4993073;28;20450;-68
2022/09/12 06:54:11;;;;;;;0.00;0.00;;;14.20;99.90;;;;;;4994773;28;20450;-71
2022/09/12 06:56:41;;;;;;;0.00;0.00;;;14.30;99.90;;;;;;4996853;28;20485;-68
2022/09/12 06:59:09;;;;;;;0.00;0.00;;;14.40;99.90;;;;;;4994206;28;20483;-68
2022/09/12 07:01:37;;;;;;;0.00;0.00;;;14.50;99.90;;;;;;4985657;28;20461;-67
2022/09/12 07:04:05;;;;;;;0.00;0.00;;;14.60;99.90;;;;;;4996534;28;20759;-69
2022/09/12 07:06:37;;;;;;;0.00;0.00;;;14.70;99.90;;;;;;4995795;28;20969;-68
2022/09/12 07:09:06;;;;;;;0.00;0.00;;;14.80;99.90;;;;;;4993377;28;20485;-67
2022/09/12 07:11:36;;;;;;;0.00;0.00;;;14.90;99.90;;;;;;4980081;28;20462;-71
2022/09/12 07:14:07;;;;;;;0.00;0.00;;;15.00;99.90;;;;;;4979902;28;20451;-70
2022/09/12 07:16:35;;;;;;;0.00;0.00;;;15.10;99.90;;;;;;4981778;28;20765;-72
2022/09/12 07:19:05;;;;;;;0.00;0.00;;;15.20;99.90;;;;;;4989756;28;20490;-71
2022/09/12 07:21:38;;;;;;;0.00;0.00;;;15.30;99.90;;;;;;4993075;28;20462;-72
2022/09/12 07:24:08;;;;;;;0.00;0.00;;;15.40;99.90;;;;;;4993115;28;20623;-69
2022/09/12 07:26:38;;;;;;;0.00;0.00;;;15.50;99.90;;;;;;4998258;28;20470;-71
2022/09/12 07:29:13;;;;;;;0.00;0.00;;;15.50;99.90;;;;;;4987501;28;20499;-69
2022/09/12 07:32:01;;;;;;;0.00;0.00;;;15.60;99.90;;;;;;4993683;28;20521;-71
2022/09/12 07:34:29;;;;;;;0.00;0.00;;;15.70;99.90;;;;;;4993520;28;20461;-72
2022/09/12 07:36:57;;;;;;;0.00;0.00;;;15.80;99.90;;;;;;4988924;28;21017;-71
2022/09/12 07:39:25;;;;;;;0.00;0.00;;;15.90;99.90;;;;;;4991975;28;20500;-71
2022/09/12 07:41:53;;;;;;;0.00;0.00;;;16.00;99.90;;;;;;4984588;28;20506;-71
2022/09/12 07:44:22;;;;;;;0.00;0.00;;;16.10;99.90;;;;;;4979440;28;20451;-71
2022/09/12 07:46:51;;;;;;;0.00;0.00;;;16.20;99.90;;;;;;4995543;28;20949;-69
2022/09/12 07:49:18;;;;;;;0.00;0.00;;;16.30;99.90;;;;;;4994370;28;20559;-70
2022/09/12 07:51:46;;;;;;;0.00;0.00;;;16.40;99.90;;;;;;4979543;28;20496;-69
2022/09/12 07:54:14;;;;;;;0.00;0.00;;;16.50;99.90;;;;;;4987099;28;20510;-68
2022/09/12 07:56:42;;;;;;;0.00;0.00;;;16.60;99.90;;;;;;4980591;28;20736;-69
2022/09/12 07:59:10;;;;;;;0.00;0.00;;;16.70;99.90;;;;;;4981525;28;20466;-69
2022/09/12 08:01:40;;;;;;;0.00;0.00;;;16.70;99.90;;;;;;4990757;28;20769;-69
2022/09/12 08:04:08;;;;;;;0.00;0.00;;;16.80;99.90;;;;;;4987968;28;20541;-69
2022/09/12 08:06:36;;;;;;;0.00;0.00;;;16.80;99.90;;;;;;4992986;28;20454;-69
2022/09/12 08:09:06;;;;;;;0.00;0.00;;;16.90;99.90;;;;;;4999356;28;20479;-69
2022/09/12 08:11:34;;;;;;;0.00;0.00;;;17.00;99.90;;;;;;4984056;28;20502;-68
2022/09/12 08:14:04;;;;;;;0.00;0.00;;;17.10;99.90;;;;;;4988139;28;20483;-69
2022/09/12 08:16:33;;;;;;;0.00;0.00;;;17.10;99.90;;;;;;4992361;28;20510;-69
2022/09/12 08:19:04;;;;;;;0.00;0.00;;;17.30;99.90;;;;;;4989154;28;20567;-69
2022/09/12 08:21:33;;;;;;;0.00;0.00;;;17.30;99.90;;;;;;4988787;28;20462;-68
2022/09/12 08:24:02;;;;;;;0.00;0.00;;;17.40;99.90;;;;;;4981435;28;20465;-69
2022/09/12 08:26:31;;;;;;;0.00;0.00;;;17.60;99.90;;;;;;4984345;28;20575;-68
2022/09/12 08:29:00;;;;;;;0.00;0.00;;;17.70;99.90;;;;;;4999267;28;20469;-68
2022/09/12 08:31:28;;;;;;;0.00;0.00;;;17.90;99.90;;;;;;4994781;28;21020;-68
2022/09/12 08:33:57;;;;;;;0.00;0.00;;;18.00;99.90;;;;;;4984875;28;20457;-69
2022/09/12 08:36:28;;;;;;;0.00;0.00;;;18.10;99.90;;;;;;4995210;28;20472;-68
2022/09/12 08:38:58;;;;;;;0.00;0.00;;;18.20;99.90;;;;;;4991915;28;20484;-67
2022/09/12 08:41:33;;;;;;;0.00;0.00;;;18.30;99.90;;;;;;4988353;28;20470;-67
2022/09/12 08:44:18;;;;;;;0.00;0.00;;;18.50;99.90;;;;;;4991281;28;20475;-67
2022/09/12 08:46:57;;;;;;;0.00;0.00;;;18.60;99.90;;;;;;4988265;28;20445;-67
2022/09/12 08:49:29;;;;;;;0.00;0.00;;;18.70;99.90;;;;;;4979226;28;20512;-67
2022/09/12 08:52:06;;;;;;;0.00;0.00;;;18.90;99.90;;;;;;4995525;28;20599;-67
2022/09/12 08:54:34;;;;;;;0.00;0.00;;;19.00;99.90;;;;;;4999477;28;20860;-67
2022/09/12 08:57:04;;;;;;;0.00;0.00;;;19.00;99.90;;;;;;4992491;28;20639;-66
2022/09/12 08:59:38;;;;;;;0.00;0.00;;;19.20;99.90;;;;;;4992430;28;20477;-67
2022/09/12 09:02:42;;;;;;;0.00;0.00;;;19.30;99.90;;;;;;4991193;28;20864;-68
2022/09/12 09:05:19;;;;;;;0.00;0.00;;;19.50;99.90;;;;;;4950969;28;20488;-67
2022/09/12 09:08:04;;;;;;;0.00;0.00;;;19.50;99.90;;;;;;4989480;28;20590;-67
2022/09/12 09:10:44;;;;;;;0.00;0.00;;;19.60;99.90;;;;;;4996860;28;20484;-67
2022/09/12 09:16:14;;;;;;;0.00;0.00;;;19.70;99.90;;;;;;4985147;28;20986;-67
2022/09/12 09:18:48;;;;;;;0.00;0.00;;;19.70;99.90;;;;;;4983382;28;20453;-67
2022/09/12 09:21:23;;;;;;;0.00;0.00;;;19.70;99.90;;;;;;4984433;28;21019;-68
2022/09/12 09:24:00;;;;;;;0.00;0.00;;;19.70;99.90;;;;;;5003290;28;20481;-67
2022/09/12 09:26:34;;;;;;;0.00;0.00;;;19.80;99.90;;;;;;5003438;28;20437;-68
2022/09/12 09:29:05;;;;;;;0.00;0.00;;;20.00;99.90;;;;;;5002897;28;20886;-67
2022/09/12 09:31:38;;;;;;;0.00;0.00;;;20.00;99.90;;;;;;5002760;28;20482;-67
2022/09/12 09:34:13;;;;;;;0.00;0.00;;;20.10;99.90;;;;;;5003412;28;21006;-67
2022/09/12 09:36:49;;;;;;;0.00;0.00;;;20.30;99.90;;;;;;5004296;28;21002;-67
2022/09/12 09:39:35;;;;;;;0.00;0.00;;;20.40;99.90;;;;;;5004682;28;20454;-67
2022/09/12 09:42:17;;;;;;;0.00;0.00;;;20.50;99.90;;;;;;4990962;28;20440;-69
2022/09/12 09:44:47;;;;;;;0.00;0.00;;;20.60;99.90;;;;;;4995325;28;20764;-69
2022/09/12 09:47:18;;;;;;;0.00;0.00;;;20.70;99.90;;;;;;4984513;28;20454;-73
2022/09/12 09:49:46;;;;;;;0.00;0.00;;;20.80;99.90;;;;;;4991067;28;20474;-74
2022/09/12 09:52:24;;;;;;;0.00;0.00;;;20.90;99.90;;;;;;4990133;28;20539;-66
2022/09/12 09:54:57;;;;;;;0.00;0.00;;;21.00;99.90;;;;;;4991623;28;20454;-66
2022/09/12 09:57:46;;;;;;;0.00;0.00;;;21.10;99.90;;;;;;4994306;28;20665;-66
2022/09/12 10:00:27;;;;;;;0.00;0.00;;;21.10;99.90;;;;;;4996822;28;20535;-72
2022/09/12 10:03:19;;;;;;;0.00;0.00;;;21.20;99.90;;;;;;5001443;28;20833;-73
2022/09/12 10:05:48;;;;;;;0.00;0.00;;;21.20;99.90;;;;;;5000739;28;20496;-72
2022/09/12 10:08:25;;;;;;;0.00;0.00;;;21.20;99.90;;;;;;5000835;28;20465;-74
2022/09/12 10:10:56;;;;;;;0.00;0.00;;;21.30;99.90;;;;;;5000835;28;20528;-75
2022/09/12 10:13:28;;;;;;;0.00;0.00;;;21.50;99.90;;;;;;5000933;28;20443;-72
2022/09/12 10:15:58;;;;;;;0.00;0.00;;;21.60;99.90;;;;;;4988696;28;20526;-72
2022/09/12 10:18:41;;;;;;;0.00;0.00;;;21.70;99.90;;;;;;4990746;28;20518;-71
2022/09/12 10:21:23;;;;;;;0.00;0.00;;;21.80;99.90;;;;;;4992396;28;20453;-71
2022/09/12 10:23:58;;;;;;;0.00;0.00;;;21.90;99.90;;;;;;4994324;28;20494;-72
2022/09/12 10:26:34;;;;;;;0.00;0.00;;;22.00;99.90;;;;;;4993580;28;20734;-70
2022/09/12 10:29:10;;;;;;;0.00;0.00;;;22.00;99.90;;;;;;4996307;28;20582;-68
2022/09/12 10:31:46;;;;;;;0.00;0.00;;;21.80;99.90;;;;;;5000552;28;20439;-70
2022/09/12 10:34:25;;;;;;;0.00;0.00;;;21.90;99.90;;;;;;4991711;28;20604;-72
2022/09/12 10:36:58;;;;;;;0.00;0.00;;;22.00;99.90;;;;;;4981257;28;20880;-69
2022/09/12 10:39:26;;;;;;;0.00;0.00;;;22.00;99.90;;;;;;4980705;28;20469;-69
2022/09/12 10:41:55;;;;;;;0.00;0.00;;;22.00;99.90;;;;;;4982317;28;20458;-68
2022/09/12 10:44:26;;;;;;;0.00;0.00;;;22.20;99.90;;;;;;4991287;28;20822;-68
2022/09/12 10:46:54;;;;;;;0.00;0.00;;;22.30;99.90;;;;;;4994063;28;20463;-68
2022/09/12 10:49:29;;;;;;;0.00;0.00;;;22.40;99.90;;;;;;4985062;28;20597;-68
2022/09/12 10:52:15;;;;;;;0.00;0.00;;;22.50;99.90;;;;;;5000286;28;20552;-67
2022/09/12 10:54:43;;;;;;;0.00;0.00;;;22.60;99.90;;;;;;5000216;28;21135;-69
2022/09/12 10:57:48;;;;;;;0.00;0.00;;;22.60;99.90;;;;;;5001146;28;20546;-69
2022/09/12 11:00:26;;;;;;;0.00;0.00;;;22.70;99.90;;;;;;4985384;28;20471;-67
2022/09/12 11:03:04;;;;;;;0.00;0.00;;;22.70;99.90;;;;;;5003089;28;20434;-67
2022/09/12 11:05:47;;;;;;;0.00;0.00;;;22.90;99.90;;;;;;5002527;28;21115;-69
2022/09/12 11:08:45;;;;;;;0.00;0.00;;;22.90;99.90;;;;;;5001909;28;20493;-68
2022/09/12 11:11:33;;;;;;;0.00;0.00;;;23.00;99.90;;;;;;4994234;28;20518;-69
2022/09/12 11:14:33;;;;;;;0.00;0.00;;;23.00;99.90;;;;;;4995684;28;20571;-68
2022/09/12 11:17:15;;;;;;;0.00;0.00;;;22.90;99.90;;;;;;4996424;28;20853;-69
2022/09/12 11:20:09;;;;;;;0.00;0.00;;;23.00;99.90;;;;;;4992686;28;20527;-69
2022/09/12 11:22:57;;;;;;;0.00;0.00;;;23.10;99.90;;;;;;4997267;28;20466;-67
2022/09/12 11:25:33;;;;;;;0.00;0.00;;;23.10;99.90;;;;;;4982157;28;20455;-68
2022/09/12 11:28:25;;;;;;;0.00;0.00;;;23.10;99.90;;;;;;4980148;28;20452;-67
2022/09/12 11:31:11;;;;;;;0.00;0.00;;;23.20;99.90;;;;;;4980690;28;20486;-68
2022/09/12 11:33:42;;;;;;;0.00;0.00;;;23.20;99.90;;;;;;4981337;28;20509;-68
2022/09/12 11:36:23;;;;;;;0.00;0.00;;;23.20;99.90;;;;;;4980426;28;21006;-68
2022/09/12 11:38:55;;;;;;;0.00;0.00;;;23.20;99.90;;;;;;4979962;28;20483;-68
2022/09/12 11:41:28;;;;;;;0.00;0.00;;;23.20;99.90;;;;;;4980512;28;20447;-68
2022/09/12 11:44:02;;;;;;;0.00;0.00;;;23.30;99.90;;;;;;4980443;28;20514;-68
2022/09/12 11:46:36;;;;;;;0.00;0.00;;;23.30;99.90;;;;;;4979536;28;21112;-68
2022/09/12 11:49:14;;;;;;;0.00;0.00;;;23.40;99.90;;;;;;4979504;28;20526;-68
2022/09/12 11:51:49;;;;;;;0.00;0.00;;;23.50;99.90;;;;;;4979550;28;20763;-69
2022/09/12 11:54:23;;;;;;;0.00;0.00;;;23.50;99.90;;;;;;4979377;28;20443;-70
2022/09/12 11:56:59;;;;;;;0.00;0.00;;;23.50;99.90;;;;;;4979028;28;20823;-75
2022/09/12 11:59:35;;;;;;;0.00;0.00;;;23.50;99.90;;;;;;4989111;28;20494;-69
2022/09/12 12:02:10;;;;;;;0.00;0.00;;;23.50;99.90;;;;;;4979383;28;20983;-69
2022/09/12 12:04:42;;;;;;;0.00;0.00;;;23.40;99.90;;;;;;4991078;28;20537;-68
2022/09/12 12:07:11;;;;;;;0.00;0.00;;;23.50;99.90;;;;;;4994046;28;20451;-68
2022/09/12 12:09:47;;;;;;;0.00;0.00;;;23.50;99.90;;;;;;4996764;28;20470;-68
2022/09/12 12:12:20;;;;;;;0.00;0.00;;;23.40;99.90;;;;;;4978769;28;20449;-68
2022/09/12 12:14:51;;;;;;;0.00;0.00;;;23.40;99.90;;;;;;4978941;28;20499;-68
2022/09/12 12:17:23;;;;;;;0.00;0.00;;;23.40;99.90;;;;;;4978951;28;20466;-68
2022/09/12 12:19:59;;;;;;;0.00;0.00;;;23.40;99.90;;;;;;4979316;28;20483;-67
2022/09/12 12:22:34;;;;;;;0.00;0.00;;;23.30;99.90;;;;;;4988178;28;20498;-69
2022/09/12 12:25:07;;;;;;;0.00;0.00;;;23.20;99.90;;;;;;4988219;28;20438;-68
2022/09/12 12:27:57;;;;;;;0.00;0.00;;;23.30;99.90;;;;;;4990643;28;21090;-68
2022/09/12 12:31:01;;;;;;;0.00;0.00;;;23.40;99.90;;;;;;4990461;28;20477;-68
2022/09/12 12:34:02;;;;;;;0.00;0.00;;;23.30;99.90;;;;;;4991541;28;21060;-66
2022/09/12 12:36:39;;;;;;;0.00;0.00;;;23.20;99.90;;;;;;4969449;28;20468;-66
2022/09/12 12:39:43;;;;;;;0.00;0.00;;;23.20;99.90;;;;;;4982040;28;20487;-68
2022/09/12 12:42:31;;;;;;;0.00;0.00;;;23.30;99.90;;;;;;4998524;28;20869;-69
2022/09/12 12:44:59;;;;;;;0.00;0.00;;;23.30;99.90;;;;;;4998283;28;20744;-68
2022/09/12 12:47:31;;;;;;;0.00;0.00;;;23.50;99.90;;;;;;4998580;28;20445;-68
2022/09/12 12:50:04;;;;;;;0.00;0.00;;;23.50;99.90;;;;;;4998425;28;20481;-68
2022/09/12 12:52:46;;;;;;;0.00;0.00;;;23.60;99.90;;;;;;4998543;28;20443;-67
2022/09/12 12:55:17;;;;;;;0.00;0.00;;;23.80;99.90;;;;;;4998030;28;20985;-66
2022/09/12 12:57:49;;;;;;;0.00;0.00;;;23.90;99.90;;;;;;4998089;28;20448;-66
2022/09/12 13:00:33;;;;;;;0.00;0.00;;;24.00;99.90;;;;;;4998389;28;20463;-67
2022/09/12 13:03:09;;;;;;;0.00;0.00;;;24.00;99.90;;;;;;4990540;28;20472;-68
2022/09/12 13:05:41;;;;;;;0.00;0.00;;;24.10;99.90;;;;;;4986378;28;20498;-69
2022/09/12 13:08:27;;;;;;;0.00;0.00;;;24.10;99.90;;;;;;4981693;28;20564;-71
2022/09/12 13:10:59;;;;;;;0.00;0.00;;;24.20;99.90;;;;;;4977527;28;20584;-71
2022/09/12 13:13:31;;;;;;;0.00;0.00;;;24.20;99.90;;;;;;4977336;28;20999;-71
2022/09/12 13:15:59;;;;;;;0.00;0.00;;;24.30;99.90;;;;;;4976913;28;20764;-68
2022/09/12 13:18:30;;;;;;;0.00;0.00;;;24.30;99.90;;;;;;4977689;28;20643;-68
2022/09/12 13:21:07;;;;;;;0.00;0.00;;;24.40;99.90;;;;;;4978263;28;20469;-71
2022/09/12 13:23:36;;;;;;;0.00;0.00;;;24.40;99.90;;;;;;4978145;28;21228;-71
2022/09/12 13:26:11;;;;;;;0.00;0.00;;;24.40;99.90;;;;;;4978485;28;20997;-67
2022/09/12 13:28:39;;;;;;;0.00;0.00;;;24.40;99.90;;;;;;4990094;28;20776;-67
2022/09/12 13:31:15;;;;;;;0.00;0.00;;;24.10;99.90;;;;;;4992838;28;20455;-68
2022/09/12 13:33:47;;;;;;;0.00;0.00;;;24.00;99.90;;;;;;4983169;28;20451;-67
2022/09/12 13:36:42;;;;;;;0.00;0.00;;;23.90;99.90;;;;;;4996544;28;20941;-68
2022/09/12 13:39:20;;;;;;;0.00;0.00;;;23.90;99.90;;;;;;4998834;28;20492;-68
2022/09/12 13:42:25;;;;;;;0.00;0.00;;;23.90;99.90;;;;;;4999906;28;20534;-68
2022/09/12 13:44:56;;;;;;;0.00;0.00;;;23.90;99.90;;;;;;4974926;28;20513;-68
2022/09/12 13:47:30;;;;;;;0.00;0.00;;;23.90;99.90;;;;;;4996763;28;20458;-67
2022/09/12 13:49:59;;;;;;;0.00;0.00;;;23.80;99.90;;;;;;4997961;28;20704;-68
2022/09/12 13:52:30;;;;;;;0.00;0.00;;;23.80;99.90;;;;;;5001144;28;20437;-68
2022/09/12 13:55:01;;;;;;;0.00;0.00;;;23.90;99.90;;;;;;5003681;28;20446;-68
2022/09/12 13:57:32;;;;;;;0.00;0.00;;;23.80;99.90;;;;;;5003354;28;20432;-67
2022/09/12 14:00:03;;;;;;;0.00;0.00;;;23.80;99.90;;;;;;5000639;28;20498;-67
2022/09/12 14:02:35;;;;;;;0.00;0.00;;;23.70;99.90;;;;;;5001131;28;20440;-67
2022/09/12 14:05:12;;;;;;;0.00;0.00;;;23.80;99.90;;;;;;5001249;28;20440;-67
2022/09/12 14:07:53;;;;;;;0.00;0.00;;;23.80;99.90;;;;;;5001415;28;20806;-67
2022/09/12 14:10:29;;;;;;;0.00;0.00;;;23.70;99.90;;;;;;5000691;28;20466;-67
2022/09/12 14:12:57;;;;;;;0.00;0.00;;;23.70;99.90;;;;;;5000850;28;20644;-67
2022/09/12 14:15:28;;;;;;;0.00;0.00;;;23.80;99.90;;;;;;5001046;28;21003;-67
2022/09/12 14:18:00;;;;;;;0.00;0.00;;;23.70;99.90;;;;;;5000851;28;20781;-68
2022/09/12 14:20:31;;;;;;;0.00;0.00;;;23.70;99.90;;;;;;5000541;28;20506;-67
2022/09/12 14:23:02;;;;;;;0.00;0.00;;;23.80;99.90;;;;;;5000321;28;20482;-67
2022/09/12 14:25:37;;;;;;;0.00;0.00;;;23.80;99.90;;;;;;5000714;28;20443;-68
2022/09/12 14:28:06;;;;;;;0.00;0.00;;;23.90;99.90;;;;;;5000613;28;20730;-67
2022/09/12 14:30:36;;;;;;;0.00;0.00;;;24.00;99.90;;;;;;4999978;28;21006;-67
2022/09/12 14:33:15;;;;;;;0.00;0.00;;;24.10;99.90;;;;;;5000110;28;20604;-67
2022/09/12 14:35:45;;;;;;;0.00;0.00;;;24.10;99.90;;;;;;5000498;28;20444;-66